Time;durP1;ratioP1;P1;durP2;ratioP2;P2;SDS_P1;SDS_P2;PMS_P1;PMS_P2;Temp;Humidity;BMP_temperature;BMP_pressure;BME280_temperature;BME280_humidity;BME280_pressure;Samples;Min_cycle;Max_cycle;Signal;HPM_P1;HPM_P2
2021/04/02 00:02:08;;;;;;;12.23;7.40;;;8.40;99.90;;;;;;5093178;28;20163;-72
2021/04/02 00:04:34;;;;;;;9.87;7.40;;;8.40;99.90;;;;;;5094002;28;20183;-72
2021/04/02 00:07:00;;;;;;;8.83;6.67;;;8.40;99.90;;;;;;5097077;28;20400;-72
2021/04/02 00:09:26;;;;;;;8.83;6.50;;;8.60;99.90;;;;;;5096785;28;20223;-72
2021/04/02 00:11:52;;;;;;;8.60;6.67;;;8.70;99.90;;;;;;5093499;28;20442;-73
2021/04/02 00:14:18;;;;;;;10.77;6.07;;;8.60;99.90;;;;;;5096947;28;20168;-71
2021/04/02 00:16:43;;;;;;;10.33;6.70;;;8.50;99.90;;;;;;5096946;28;20417;-73
2021/04/02 00:19:09;;;;;;;9.87;7.23;;;8.40;99.90;;;;;;5096510;28;20211;-72
2021/04/02 00:21:34;;;;;;;9.67;6.70;;;8.50;99.90;;;;;;5095932;27;20533;-72
2021/04/02 00:24:00;;;;;;;9.17;7.03;;;8.50;99.90;;;;;;5096466;28;20171;-73
2021/04/02 00:26:26;;;;;;;7.83;7.00;;;8.60;99.90;;;;;;5096498;28;20162;-73
2021/04/02 00:28:52;;;;;;;9.77;6.80;;;8.60;99.90;;;;;;5096390;28;20203;-73
2021/04/02 00:31:18;;;;;;;10.57;7.30;;;8.70;99.90;;;;;;5093705;28;20192;-72
2021/04/02 00:33:44;;;;;;;8.03;6.70;;;8.70;99.90;;;;;;5096706;28;20474;-72
2021/04/02 00:36:10;;;;;;;8.70;6.67;;;8.70;99.90;;;;;;5096886;28;20425;-72
2021/04/02 00:38:36;;;;;;;7.77;6.50;;;8.70;99.90;;;;;;5096886;28;20462;-72
2021/04/02 00:41:12;;;;;;;8.90;7.33;;;8.70;99.90;;;;;;5096891;28;20488;-72
2021/04/02 00:43:42;;;;;;;10.73;6.80;;;8.70;99.90;;;;;;5093893;28;20176;-72
2021/04/02 00:46:10;;;;;;;7.00;6.30;;;8.70;99.90;;;;;;5096535;28;20409;-72
2021/04/02 00:48:36;;;;;;;8.27;7.03;;;8.70;99.90;;;;;;5094862;28;20414;-73
2021/04/02 00:51:05;;;;;;;8.93;6.70;;;8.70;99.90;;;;;;5095689;27;20799;-72
2021/04/02 00:53:33;;;;;;;10.10;7.47;;;8.70;99.90;;;;;;5094250;28;20422;-73
2021/04/02 00:56:00;;;;;;;11.00;6.63;;;8.50;99.90;;;;;;5094903;28;20963;-73
2021/04/02 00:58:29;;;;;;;11.37;7.37;;;8.30;99.90;;;;;;5096248;28;20485;-72
2021/04/02 01:00:55;;;;;;;7.40;6.63;;;8.20;99.90;;;;;;5095609;28;20423;-73
2021/04/02 01:03:22;;;;;;;15.47;8.30;;;8.20;99.90;;;;;;5094994;28;20443;-72
2021/04/02 01:05:50;;;;;;;11.77;7.73;;;8.30;99.90;;;;;;5093468;28;20223;-73
2021/04/02 01:08:30;;;;;;;8.90;6.07;;;8.50;99.90;;;;;;5094731;28;20463;-72
2021/04/02 01:10:58;;;;;;;9.57;7.47;;;8.40;99.90;;;;;;5096770;28;20508;-72
2021/04/02 01:13:38;;;;;;;12.20;7.90;;;8.10;99.90;;;;;;5095890;28;20460;-73
2021/04/02 01:16:15;;;;;;;9.10;6.93;;;8.10;99.90;;;;;;5094004;28;20544;-73
2021/04/02 01:18:50;;;;;;;10.10;8.60;;;8.20;99.90;;;;;;5095231;28;20466;-72
2021/04/02 01:21:27;;;;;;;11.80;9.40;;;8.30;99.90;;;;;;5095499;28;20424;-73
2021/04/02 01:24:30;;;;;;;10.30;7.73;;;8.20;99.90;;;;;;5095327;27;20401;-73
2021/04/02 01:27:07;;;;;;;11.70;9.00;;;8.10;99.90;;;;;;5064511;28;20815;-72
2021/04/02 01:29:44;;;;;;;10.93;9.70;;;8.20;99.90;;;;;;5073632;28;20828;-73
2021/04/02 01:32:17;;;;;;;12.03;9.13;;;8.10;99.90;;;;;;5075093;28;20399;-72
2021/04/02 01:34:46;;;;;;;13.20;10.33;;;8.10;99.90;;;;;;5075072;28;20403;-73
2021/04/02 01:37:26;;;;;;;12.93;9.40;;;8.20;99.90;;;;;;5075723;28;20430;-72
2021/04/02 01:39:55;;;;;;;12.70;9.87;;;8.20;99.90;;;;;;5073431;28;20415;-72
2021/04/02 01:42:22;;;;;;;16.13;10.00;;;8.10;99.90;;;;;;5074543;28;20411;-73
2021/04/02 01:44:50;;;;;;;15.13;10.63;;;8.20;99.90;;;;;;5073708;28;20910;-73
2021/04/02 01:47:17;;;;;;;16.40;10.77;;;8.20;99.90;;;;;;5087248;28;20473;-72
2021/04/02 01:49:43;;;;;;;16.67;10.03;;;8.00;99.90;;;;;;5094353;27;20427;-72
2021/04/02 01:52:10;;;;;;;12.73;10.37;;;7.90;99.90;;;;;;5095324;28;20482;-72
2021/04/02 01:54:36;;;;;;;19.73;12.37;;;7.80;99.90;;;;;;5095333;28;20397;-72
2021/04/02 01:57:04;;;;;;;14.40;11.63;;;7.90;99.90;;;;;;5092095;28;20414;-72
2021/04/02 01:59:31;;;;;;;12.00;10.70;;;7.90;99.90;;;;;;5076685;28;20466;-73
2021/04/02 02:01:58;;;;;;;11.73;9.73;;;7.90;99.90;;;;;;5074789;28;20425;-72
2021/04/02 02:04:25;;;;;;;13.53;11.53;;;7.80;99.90;;;;;;5074439;28;20415;-72
2021/04/02 02:06:53;;;;;;;14.97;10.83;;;7.80;99.90;;;;;;5074868;28;20406;-73
2021/04/02 02:09:24;;;;;;;12.73;10.83;;;7.90;99.90;;;;;;5092483;28;20801;-72
2021/04/02 02:11:53;;;;;;;15.27;11.50;;;7.80;99.90;;;;;;5094846;28;20425;-72
2021/04/02 02:14:21;;;;;;;17.63;13.10;;;7.70;99.90;;;;;;5094482;28;20437;-73
2021/04/02 02:16:52;;;;;;;14.97;12.03;;;7.70;99.90;;;;;;5094721;28;20451;-73
2021/04/02 02:19:21;;;;;;;16.83;11.50;;;7.90;99.90;;;;;;5093475;28;20956;-72
2021/04/02 02:21:49;;;;;;;13.20;11.20;;;8.10;99.90;;;;;;5096511;27;20506;-73
2021/04/02 02:24:16;;;;;;;15.10;13.00;;;8.20;99.90;;;;;;5095000;28;20454;-72
2021/04/02 02:26:42;;;;;;;13.93;11.80;;;8.20;99.90;;;;;;5094709;28;20189;-72
2021/04/02 02:29:10;;;;;;;22.87;12.20;;;8.30;99.90;;;;;;5087697;28;20423;-72
2021/04/02 02:31:35;;;;;;;18.77;12.57;;;8.40;99.90;;;;;;5073813;28;20434;-73
2021/04/02 02:34:02;;;;;;;17.37;12.00;;;8.40;99.90;;;;;;5072460;28;20831;-73
2021/04/02 02:36:29;;;;;;;13.80;11.17;;;8.20;99.90;;;;;;5073816;28;20167;-73
2021/04/02 02:38:55;;;;;;;14.77;11.50;;;8.10;99.90;;;;;;5073487;28;20452;-72
2021/04/02 02:41:24;;;;;;;15.00;11.23;;;7.90;99.90;;;;;;5073610;28;20437;-73
2021/04/02 02:43:50;;;;;;;14.73;11.07;;;7.80;99.90;;;;;;5073595;28;20403;-73
2021/04/02 02:46:15;;;;;;;15.10;10.90;;;7.80;99.90;;;;;;5073500;28;20488;-73
2021/04/02 02:48:46;;;;;;;13.27;11.40;;;7.80;99.90;;;;;;5073348;28;20201;-72
2021/04/02 02:51:12;;;;;;;15.63;11.63;;;7.70;99.90;;;;;;5085690;28;20602;-73
2021/04/02 02:53:38;;;;;;;18.57;13.10;;;7.60;99.90;;;;;;5093763;27;20520;-73
2021/04/02 02:56:05;;;;;;;15.03;11.20;;;7.60;99.90;;;;;;5093770;28;20447;-73
2021/04/02 02:58:31;;;;;;;12.83;11.47;;;7.60;99.90;;;;;;5093281;28;20478;-73
2021/04/02 03:00:57;;;;;;;16.43;12.00;;;7.60;99.90;;;;;;5091522;28;20440;-73
2021/04/02 03:03:26;;;;;;;16.50;12.20;;;7.70;99.90;;;;;;5093545;28;20443;-73
2021/04/02 03:05:56;;;;;;;18.77;13.17;;;7.80;99.90;;;;;;5093287;27;20779;-73
2021/04/02 03:08:24;;;;;;;14.97;12.00;;;7.80;99.90;;;;;;5093347;28;20490;-73
2021/04/02 03:10:50;;;;;;;13.30;10.60;;;7.60;99.90;;;;;;5093583;28;20432;-73
2021/04/02 03:13:21;;;;;;;18.50;12.23;;;7.50;99.90;;;;;;5074146;28;20793;-73
2021/04/02 03:15:48;;;;;;;20.23;14.17;;;7.40;99.90;;;;;;5073489;28;20404;-73
2021/04/02 03:18:17;;;;;;;21.53;14.10;;;7.40;99.90;;;;;;5072719;28;20451;-73
2021/04/02 03:20:43;;;;;;;15.03;12.37;;;7.50;99.90;;;;;;5073149;28;20499;-73
2021/04/02 03:23:11;;;;;;;14.27;12.27;;;7.60;99.90;;;;;;5084797;28;20403;-72
2021/04/02 03:25:39;;;;;;;17.97;13.60;;;7.80;99.90;;;;;;5093423;28;20389;-73
2021/04/02 03:28:06;;;;;;;20.47;13.70;;;7.90;99.90;;;;;;5093114;28;20450;-72
2021/04/02 03:30:32;;;;;;;22.87;15.60;;;7.80;99.90;;;;;;5092875;27;20500;-73
2021/04/02 03:33:20;;;;;;;22.13;13.93;;;7.80;99.90;;;;;;5091982;28;20498;-73
2021/04/02 03:35:47;;;;;;;18.43;14.20;;;7.80;99.90;;;;;;5093396;28;20482;-73
2021/04/02 03:38:16;;;;;;;21.43;15.07;;;7.70;99.90;;;;;;5093195;28;20456;-73
2021/04/02 03:40:43;;;;;;;19.50;14.90;;;7.50;99.90;;;;;;5096608;27;20435;-73
2021/04/02 03:43:09;;;;;;;18.90;14.10;;;7.60;99.90;;;;;;5096826;28;20411;-73
2021/04/02 03:45:38;;;;;;;19.70;14.30;;;7.50;99.90;;;;;;5078208;28;20447;-73
2021/04/02 03:48:06;;;;;;;21.90;15.20;;;7.50;99.90;;;;;;5077730;28;20411;-72
2021/04/02 03:50:35;;;;;;;24.60;15.77;;;7.50;99.90;;;;;;5078357;28;20416;-73
2021/04/02 03:53:39;;;;;;;24.27;15.47;;;7.60;99.90;;;;;;5078679;28;20431;-71
2021/04/02 03:56:09;;;;;;;20.90;14.57;;;7.70;99.90;;;;;;5054511;28;20507;-71
2021/04/02 03:58:37;;;;;;;21.57;13.40;;;7.60;99.90;;;;;;5054463;28;20488;-73
2021/04/02 04:01:07;;;;;;;22.20;16.33;;;7.50;99.90;;;;;;5053895;28;20404;-74
2021/04/02 04:03:36;;;;;;;21.87;15.23;;;7.30;99.90;;;;;;5054562;28;20507;-70
2021/04/02 04:06:04;;;;;;;20.43;13.73;;;7.30;99.90;;;;;;5068621;28;20773;-73
2021/04/02 04:08:31;;;;;;;27.17;14.97;;;7.30;99.90;;;;;;5074503;28;20429;-73
2021/04/02 04:10:58;;;;;;;23.00;13.90;;;7.30;99.90;;;;;;5074519;28;20437;-73
2021/04/02 04:13:27;;;;;;;25.43;14.63;;;7.30;99.90;;;;;;5074444;28;20412;-73
2021/04/02 04:15:54;;;;;;;27.47;15.03;;;7.20;99.90;;;;;;5067424;28;20444;-73
2021/04/02 04:18:21;;;;;;;29.10;15.70;;;7.20;99.90;;;;;;5053583;28;20465;-73
2021/04/02 04:20:48;;;;;;;23.20;14.90;;;7.20;99.90;;;;;;5054488;28;20440;-71
2021/04/02 04:23:15;;;;;;;26.07;14.63;;;7.30;99.90;;;;;;5054437;28;20413;-72
2021/04/02 04:25:42;;;;;;;26.47;14.37;;;7.50;99.90;;;;;;5054629;28;20780;-72
2021/04/02 04:28:11;;;;;;;20.57;12.97;;;7.50;99.90;;;;;;5074040;28;20420;-72
2021/04/02 04:30:38;;;;;;;20.43;12.33;;;7.30;99.90;;;;;;5074244;28;20435;-72
2021/04/02 04:33:05;;;;;;;18.13;12.80;;;7.40;99.90;;;;;;5076306;28;20453;-72
2021/04/02 04:35:32;;;;;;;18.00;11.80;;;7.50;99.90;;;;;;5076254;28;20498;-72
2021/04/02 04:38:00;;;;;;;19.37;12.60;;;7.30;99.90;;;;;;5076828;28;20786;-72
2021/04/02 04:40:26;;;;;;;19.20;11.70;;;7.10;99.90;;;;;;5076042;28;20432;-72
2021/04/02 04:42:53;;;;;;;17.93;11.87;;;6.90;99.90;;;;;;5074869;28;20534;-72
2021/04/02 04:45:21;;;;;;;18.40;12.50;;;7.00;99.90;;;;;;5075881;28;20404;-72
2021/04/02 04:47:47;;;;;;;13.30;9.77;;;7.10;99.90;;;;;;5082174;27;20435;-72
2021/04/02 04:50:14;;;;;;;14.17;10.50;;;7.20;99.90;;;;;;5095505;28;20419;-73
2021/04/02 04:53:02;;;;;;;18.90;10.60;;;7.40;99.90;;;;;;5095826;28;20896;-72
2021/04/02 04:55:31;;;;;;;18.60;11.37;;;7.50;99.90;;;;;;5096090;28;20419;-72
2021/04/02 04:57:58;;;;;;;13.10;10.17;;;7.50;99.90;;;;;;5092409;28;20837;-72
2021/04/02 05:00:28;;;;;;;12.10;10.20;;;7.60;99.90;;;;;;5075961;28;20769;-72
2021/04/02 05:02:55;;;;;;;11.43;8.60;;;7.80;99.90;;;;;;5075739;28;20396;-72
2021/04/02 05:05:31;;;;;;;13.77;10.30;;;7.50;99.90;;;;;;5075881;28;20434;-72
2021/04/02 05:07:59;;;;;;;15.20;9.90;;;7.30;99.90;;;;;;5075156;28;20480;-72
2021/04/02 05:10:28;;;;;;;14.03;9.27;;;7.30;99.90;;;;;;5077603;28;20795;-73
2021/04/02 05:12:55;;;;;;;11.50;9.27;;;7.20;99.90;;;;;;5077496;28;20866;-72
2021/04/02 05:15:21;;;;;;;11.70;8.60;;;7.20;99.90;;;;;;5083824;28;20411;-72
2021/04/02 05:17:49;;;;;;;11.40;8.90;;;7.20;99.90;;;;;;5074633;28;20432;-72
2021/04/02 05:20:14;;;;;;;12.60;9.40;;;7.10;99.90;;;;;;5079483;28;20925;-72
2021/04/02 05:22:40;;;;;;;12.10;8.50;;;7.10;99.90;;;;;;5075140;28;20458;-72
2021/04/02 05:25:06;;;;;;;13.33;9.60;;;7.20;99.90;;;;;;5075020;28;20436;-72
2021/04/02 05:27:32;;;;;;;10.60;8.80;;;7.30;99.90;;;;;;5075293;28;20174;-72
2021/04/02 05:29:58;;;;;;;11.53;9.70;;;7.40;99.90;;;;;;5076590;28;20515;-72
2021/04/02 05:32:23;;;;;;;13.73;10.10;;;7.50;99.90;;;;;;5075729;28;20674;-72
2021/04/02 05:34:49;;;;;;;12.07;8.87;;;7.60;99.90;;;;;;5083718;28;20181;-72
2021/04/02 05:37:14;;;;;;;12.17;9.47;;;7.80;99.90;;;;;;5107637;28;20184;-72
2021/04/02 05:39:40;;;;;;;13.40;10.47;;;7.70;99.90;;;;;;5110216;28;20210;-72
2021/04/02 05:42:07;;;;;;;14.37;10.70;;;7.60;99.90;;;;;;5107292;28;20658;-72
2021/04/02 05:44:35;;;;;;;14.57;10.30;;;7.40;99.90;;;;;;5095180;28;20192;-72
2021/04/02 05:47:03;;;;;;;11.27;9.37;;;7.20;99.90;;;;;;5097069;28;20948;-72
2021/04/02 05:49:30;;;;;;;15.57;10.50;;;7.10;99.90;;;;;;5097137;28;20868;-72
2021/04/02 05:52:00;;;;;;;15.37;11.73;;;7.00;99.90;;;;;;5095296;28;20523;-72
2021/04/02 05:54:33;;;;;;;13.17;11.00;;;6.90;99.90;;;;;;5097192;28;20414;-71
2021/04/02 05:56:58;;;;;;;20.40;11.40;;;6.90;99.90;;;;;;5094328;28;20434;-71
2021/04/02 05:59:24;;;;;;;14.20;10.33;;;6.90;99.90;;;;;;5095122;27;20450;-71
2021/04/02 06:01:50;;;;;;;18.73;11.97;;;6.80;99.90;;;;;;5094645;28;20189;-71
2021/04/02 06:04:17;;;;;;;17.07;12.50;;;6.80;99.90;;;;;;5094935;28;20418;-71
2021/04/02 06:06:43;;;;;;;13.90;11.57;;;7.00;99.90;;;;;;5086783;28;20495;-71
2021/04/02 06:09:09;;;;;;;18.90;11.57;;;7.10;99.90;;;;;;5074515;28;20436;-71
2021/04/02 06:11:36;;;;;;;13.50;11.27;;;7.30;99.90;;;;;;5074896;28;20521;-71
2021/04/02 06:14:01;;;;;;;18.40;13.20;;;7.50;99.90;;;;;;5073366;28;20420;-71
2021/04/02 06:16:28;;;;;;;17.13;12.27;;;7.40;99.90;;;;;;5074756;28;20718;-71
2021/04/02 06:19:04;;;;;;;16.90;12.50;;;7.50;99.90;;;;;;5094756;28;20292;-71
2021/04/02 06:21:29;;;;;;;17.07;13.03;;;7.50;99.90;;;;;;5094771;27;20496;-73
2021/04/02 06:23:55;;;;;;;16.90;12.17;;;7.60;99.90;;;;;;5095027;28;20416;-71
2021/04/02 06:26:21;;;;;;;23.50;12.77;;;7.70;99.90;;;;;;5088868;28;20186;-72
2021/04/02 06:28:46;;;;;;;20.17;13.20;;;7.80;99.90;;;;;;5080481;28;20272;-71
2021/04/02 06:31:14;;;;;;;19.60;12.97;;;7.70;99.90;;;;;;5084659;28;20194;-71
2021/04/02 06:33:53;;;;;;;18.67;12.57;;;7.70;99.90;;;;;;5073611;28;20287;-71
2021/04/02 06:36:28;;;;;;;15.47;11.40;;;7.60;99.90;;;;;;5070749;28;20413;-71
2021/04/02 06:38:57;;;;;;;19.77;12.90;;;7.30;99.90;;;;;;5073224;28;20563;-73
2021/04/02 06:41:24;;;;;;;16.20;11.63;;;7.10;99.90;;;;;;5072172;28;20434;-73
2021/04/02 06:43:55;;;;;;;14.07;11.60;;;6.90;99.90;;;;;;5085158;28;20447;-71
2021/04/02 06:46:30;;;;;;;14.43;11.23;;;7.00;99.90;;;;;;5093776;28;20416;-72
2021/04/02 06:49:07;;;;;;;18.87;12.07;;;7.10;99.90;;;;;;5095543;27;20442;-71
2021/04/02 06:51:37;;;;;;;15.90;11.10;;;7.30;99.90;;;;;;5077735;28;20436;-70
2021/04/02 06:54:04;;;;;;;18.33;11.40;;;7.30;99.90;;;;;;5072432;28;20408;-74
2021/04/02 06:56:31;;;;;;;16.60;12.30;;;7.30;99.90;;;;;;5079184;28;20764;-72
2021/04/02 06:59:00;;;;;;;17.00;11.00;;;7.40;99.90;;;;;;5094069;28;20490;-73
2021/04/02 07:01:32;;;;;;;17.80;10.97;;;7.30;99.90;;;;;;5093148;27;20819;-71
2021/04/02 07:03:59;;;;;;;13.67;11.30;;;7.30;99.90;;;;;;5086944;28;20442;-72
2021/04/02 07:06:26;;;;;;;12.60;10.83;;;7.20;99.90;;;;;;5089989;28;20919;-72
2021/04/02 07:08:53;;;;;;;13.47;9.83;;;7.00;99.90;;;;;;5097171;28;20407;-71
2021/04/02 07:11:20;;;;;;;14.20;11.33;;;7.00;99.90;;;;;;5088002;28;20478;-71
2021/04/02 07:13:51;;;;;;;11.87;9.83;;;7.20;99.90;;;;;;5090406;28;20419;-72
2021/04/02 07:16:18;;;;;;;15.73;10.60;;;7.40;99.90;;;;;;5090359;28;20446;-71
2021/04/02 07:18:45;;;;;;;12.50;11.20;;;7.60;99.90;;;;;;5089504;28;20564;-71
2021/04/02 07:21:11;;;;;;;13.60;10.10;;;7.80;99.90;;;;;;5094210;28;20583;-72
2021/04/02 07:23:42;;;;;;;11.53;9.20;;;7.90;99.90;;;;;;5097932;27;20433;-71
2021/04/02 07:26:08;;;;;;;12.53;9.70;;;8.00;99.90;;;;;;5089805;28;20413;-71
2021/04/02 07:28:36;;;;;;;14.47;10.20;;;8.10;99.90;;;;;;5101158;28;20433;-71
2021/04/02 07:31:04;;;;;;;13.63;9.83;;;8.20;99.90;;;;;;5073866;28;20485;-71
2021/04/02 07:33:30;;;;;;;13.70;8.73;;;8.20;99.90;;;;;;5088620;28;20585;-71
2021/04/02 07:36:01;;;;;;;12.17;9.40;;;8.10;99.90;;;;;;5086203;27;20959;-71
2021/04/02 07:38:29;;;;;;;12.70;9.50;;;8.20;99.90;;;;;;5089355;28;20456;-71
2021/04/02 07:40:55;;;;;;;13.30;10.00;;;8.10;99.90;;;;;;5088449;28;20444;-71
2021/04/02 07:43:22;;;;;;;10.43;8.03;;;8.10;99.90;;;;;;5087296;28;20426;-72
2021/04/02 07:45:53;;;;;;;13.10;9.33;;;8.10;99.90;;;;;;5101935;27;20456;-71
2021/04/02 07:48:26;;;;;;;13.00;9.50;;;8.10;99.90;;;;;;5095666;28;20478;-71
2021/04/02 07:50:54;;;;;;;16.67;10.77;;;8.00;99.90;;;;;;5093438;28;20487;-72
2021/04/02 07:53:40;;;;;;;15.13;10.73;;;7.80;99.90;;;;;;5080843;28;20780;-72
2021/04/02 07:56:17;;;;;;;14.97;11.20;;;7.90;99.90;;;;;;5075950;28;20640;-71
2021/04/02 07:58:49;;;;;;;14.37;10.43;;;8.00;99.90;;;;;;5101301;27;20465;-71
2021/04/02 08:01:28;;;;;;;15.53;10.83;;;8.10;99.90;;;;;;5113154;28;20419;-71
2021/04/02 08:04:00;;;;;;;17.60;11.00;;;7.90;99.90;;;;;;5098067;28;20415;-71
2021/04/02 08:06:34;;;;;;;11.57;10.37;;;8.00;99.90;;;;;;5108613;28;20420;-71
2021/04/02 08:09:01;;;;;;;15.83;10.43;;;8.20;99.90;;;;;;5114530;28;20401;-72
2021/04/02 08:11:50;;;;;;;15.13;11.13;;;8.30;99.90;;;;;;5101005;28;20523;-71
2021/04/02 08:14:34;;;;;;;15.67;10.43;;;8.00;99.90;;;;;;5085202;28;20461;-73
2021/04/02 08:16:59;;;;;;;17.70;11.33;;;7.80;99.90;;;;;;5074554;28;20785;-71
2021/04/02 08:19:28;;;;;;;17.30;10.73;;;7.60;99.90;;;;;;5073604;28;20458;-71
2021/04/02 08:22:12;;;;;;;11.00;9.13;;;7.30;99.90;;;;;;5074268;28;20185;-72
2021/04/02 08:24:40;;;;;;;13.77;10.67;;;7.20;99.90;;;;;;5075651;28;20494;-72
2021/04/02 08:27:07;;;;;;;14.70;11.57;;;6.90;99.90;;;;;;5077417;28;20535;-73
2021/04/02 08:29:34;;;;;;;14.33;10.63;;;6.90;99.90;;;;;;5078777;28;20416;-73
2021/04/02 08:32:02;;;;;;;14.63;11.60;;;6.90;99.90;;;;;;5119542;28;20919;-71
2021/04/02 08:34:30;;;;;;;16.13;11.80;;;7.10;99.90;;;;;;5118046;28;20414;-73
2021/04/02 08:36:58;;;;;;;17.63;12.47;;;7.20;99.90;;;;;;5086644;28;20952;-71
2021/04/02 08:39:25;;;;;;;20.17;12.40;;;7.10;99.90;;;;;;5076116;28;20901;-72
2021/04/02 08:42:02;;;;;;;18.30;11.10;;;7.00;99.90;;;;;;5076880;28;20463;-72
2021/04/02 08:44:31;;;;;;;17.10;10.87;;;7.10;99.90;;;;;;5076896;28;20414;-72
2021/04/02 08:46:58;;;;;;;17.73;9.97;;;7.30;99.90;;;;;;5077325;28;20428;-72
2021/04/02 08:49:24;;;;;;;13.07;9.40;;;7.50;99.90;;;;;;5077845;28;20432;-73
2021/04/02 08:51:50;;;;;;;11.10;9.37;;;7.80;99.90;;;;;;5080480;28;20428;-73
2021/04/02 08:54:21;;;;;;;14.33;10.90;;;7.90;99.90;;;;;;5088948;28;20179;-72
2021/04/02 08:56:50;;;;;;;13.23;8.83;;;8.10;99.90;;;;;;5094090;28;20423;-73
2021/04/02 08:59:17;;;;;;;14.97;10.73;;;8.20;99.90;;;;;;5096481;28;20508;-73
2021/04/02 09:01:47;;;;;;;14.43;10.53;;;8.20;99.90;;;;;;5098260;28;20463;-73
2021/04/02 09:04:15;;;;;;;13.53;10.00;;;8.20;99.90;;;;;;5098181;28;20493;-72
2021/04/02 09:06:41;;;;;;;12.03;8.63;;;8.40;99.90;;;;;;5118649;28;20415;-72
2021/04/02 09:09:14;;;;;;;11.77;9.30;;;8.70;99.90;;;;;;5082049;28;20427;-72
2021/04/02 09:11:40;;;;;;;13.00;10.00;;;8.80;99.90;;;;;;5077564;28;20773;-72
2021/04/02 09:14:10;;;;;;;13.93;9.53;;;8.80;99.90;;;;;;5077582;28;20435;-72
2021/04/02 09:16:38;;;;;;;14.90;9.57;;;9.00;99.90;;;;;;5081037;28;20184;-72
2021/04/02 09:19:04;;;;;;;15.43;10.20;;;9.00;99.90;;;;;;5076552;28;20491;-72
2021/04/02 09:21:31;;;;;;;14.37;9.57;;;9.10;99.90;;;;;;5075627;28;20428;-73
2021/04/02 09:23:57;;;;;;;13.03;9.30;;;9.20;99.90;;;;;;5075647;28;20404;-72
2021/04/02 09:26:23;;;;;;;13.37;9.90;;;9.20;99.90;;;;;;5076578;28;20912;-72
2021/04/02 09:28:49;;;;;;;11.30;8.90;;;8.70;99.90;;;;;;5075119;28;20810;-72
2021/04/02 09:31:21;;;;;;;12.33;8.80;;;8.50;99.90;;;;;;5075605;28;20201;-72
2021/04/02 09:33:54;;;;;;;17.13;10.03;;;8.50;99.90;;;;;;5075953;28;20488;-72
2021/04/02 09:36:21;;;;;;;13.53;10.00;;;8.50;99.90;;;;;;5094858;28;20498;-72
2021/04/02 09:38:48;;;;;;;14.50;8.83;;;8.50;99.90;;;;;;5095527;28;20943;-72
2021/04/02 09:41:20;;;;;;;12.90;8.80;;;8.30;99.90;;;;;;5095852;27;20529;-72
2021/04/02 09:43:51;;;;;;;13.10;8.70;;;8.10;99.90;;;;;;5095434;28;20418;-72
2021/04/02 09:46:34;;;;;;;16.70;9.47;;;8.20;99.90;;;;;;5093818;28;20504;-72
2021/04/02 09:49:21;;;;;;;13.83;9.20;;;8.30;99.90;;;;;;5094984;28;20428;-72
2021/04/02 09:51:55;;;;;;;14.57;9.97;;;8.40;99.90;;;;;;5095028;28;20431;-72
2021/04/02 09:54:25;;;;;;;11.97;10.43;;;8.40;99.90;;;;;;5093500;28;20426;-72
2021/04/02 09:56:54;;;;;;;11.80;8.67;;;8.40;99.90;;;;;;5094956;28;20418;-72
2021/04/02 09:59:20;;;;;;;12.63;7.90;;;8.20;99.90;;;;;;5095146;28;20950;-72
2021/04/02 10:01:46;;;;;;;9.73;7.60;;;8.10;99.90;;;;;;5095035;28;20425;-71
2021/04/02 10:04:13;;;;;;;10.73;7.33;;;7.90;99.90;;;;;;5093864;27;20446;-71
2021/04/02 10:06:40;;;;;;;12.03;8.77;;;7.60;99.90;;;;;;5113984;28;20416;-71
2021/04/02 10:09:06;;;;;;;10.70;7.87;;;7.60;99.90;;;;;;5115208;28;20885;-72
2021/04/02 10:11:34;;;;;;;8.77;7.63;;;7.80;99.90;;;;;;5115508;28;20465;-72
2021/04/02 10:14:00;;;;;;;9.17;7.70;;;8.00;99.90;;;;;;5115470;28;20904;-73
2021/04/02 10:16:25;;;;;;;11.97;7.43;;;8.10;99.90;;;;;;5083555;28;20449;-71
2021/04/02 10:18:51;;;;;;;11.80;7.90;;;8.20;99.90;;;;;;5073937;28;20268;-72
2021/04/02 10:21:18;;;;;;;10.40;7.80;;;8.00;99.90;;;;;;5074842;28;20511;-71
2021/04/02 10:23:44;;;;;;;12.57;7.30;;;8.00;99.90;;;;;;5081464;28;20533;-71
2021/04/02 10:26:10;;;;;;;9.40;6.83;;;8.10;99.90;;;;;;5094694;27;20480;-71
2021/04/02 10:28:36;;;;;;;12.07;7.07;;;8.20;99.90;;;;;;5093265;28;20172;-71
2021/04/02 10:31:03;;;;;;;11.53;6.80;;;8.30;99.90;;;;;;5094428;28;20752;-71
2021/04/02 10:33:28;;;;;;;8.50;6.63;;;8.30;99.90;;;;;;5092907;28;20405;-72
2021/04/02 10:35:54;;;;;;;7.07;6.37;;;8.30;99.90;;;;;;5076793;28;20448;-72
2021/04/02 10:38:19;;;;;;;7.73;6.33;;;8.30;99.90;;;;;;5073802;28;20202;-73
2021/04/02 10:40:45;;;;;;;10.63;7.20;;;8.50;99.90;;;;;;5074299;28;20650;-72
2021/04/02 10:43:11;;;;;;;9.27;6.97;;;8.50;99.90;;;;;;5073914;28;20628;-72
2021/04/02 10:45:37;;;;;;;8.20;6.30;;;8.60;99.90;;;;;;5081660;27;20428;-71
2021/04/02 10:48:04;;;;;;;7.73;6.93;;;8.80;99.90;;;;;;5094030;28;20546;-72
2021/04/02 10:50:30;;;;;;;10.10;7.23;;;9.00;99.90;;;;;;5094053;28;20457;-72
2021/04/02 10:52:56;;;;;;;10.13;7.50;;;8.90;99.90;;;;;;5092760;28;20453;-71
2021/04/02 10:55:23;;;;;;;7.83;7.00;;;8.60;99.90;;;;;;5087479;28;20419;-72
2021/04/02 10:57:52;;;;;;;8.60;6.60;;;8.60;99.90;;;;;;5073321;28;20412;-73
2021/04/02 11:00:19;;;;;;;9.17;6.90;;;8.60;99.90;;;;;;5074159;28;20542;-72
2021/04/02 11:02:45;;;;;;;7.37;6.00;;;8.70;99.90;;;;;;5072083;28;20921;-72
2021/04/02 11:05:11;;;;;;;12.40;8.30;;;8.90;99.90;;;;;;5071773;28;20406;-72
2021/04/02 11:07:37;;;;;;;8.80;6.97;;;9.00;99.90;;;;;;5072006;28;20506;-72
2021/04/02 11:10:09;;;;;;;8.87;7.80;;;9.00;99.90;;;;;;5071315;28;20436;-72
2021/04/02 11:12:35;;;;;;;11.70;8.53;;;8.70;99.90;;;;;;5071456;28;20407;-72
2021/04/02 11:15:02;;;;;;;11.03;7.83;;;8.60;99.90;;;;;;5071374;28;20400;-72
2021/04/02 11:17:27;;;;;;;12.70;8.63;;;8.60;99.90;;;;;;5073201;28;20458;-72
2021/04/02 11:19:55;;;;;;;9.40;7.37;;;8.60;99.90;;;;;;5073668;28;20559;-72
2021/04/02 11:22:21;;;;;;;8.87;7.97;;;8.70;99.90;;;;;;5073532;28;20271;-72
2021/04/02 11:24:47;;;;;;;8.40;6.90;;;8.80;99.90;;;;;;5073778;28;20437;-72
2021/04/02 11:27:13;;;;;;;9.90;8.30;;;9.10;99.90;;;;;;5077995;28;20403;-72
2021/04/02 11:29:39;;;;;;;9.60;6.60;;;9.00;99.90;;;;;;5093537;28;20401;-73
2021/04/02 11:32:09;;;;;;;14.37;9.03;;;8.90;99.90;;;;;;5094216;28;20181;-72
2021/04/02 11:34:35;;;;;;;10.40;8.10;;;8.80;99.90;;;;;;5093987;27;20888;-72
2021/04/02 11:37:01;;;;;;;10.47;9.47;;;8.80;99.90;;;;;;5093906;28;20407;-75
2021/04/02 11:39:27;;;;;;;8.35;7.55;;;8.70;99.90;;;;;;5092744;28;20371;-75
2021/04/02 11:41:53;;;;;;;11.70;8.70;;;8.70;99.90;;;;;;5094833;28;20598;-72
2021/04/02 11:44:19;;;;;;;16.67;10.10;;;8.50;99.90;;;;;;5098661;28;20226;-72
2021/04/02 11:46:44;;;;;;;12.37;9.60;;;8.40;99.90;;;;;;5096071;28;20762;-72
2021/04/02 11:49:10;;;;;;;14.83;10.73;;;8.50;99.90;;;;;;5081984;28;20182;-72
2021/04/02 11:51:35;;;;;;;16.03;10.73;;;8.40;99.90;;;;;;5075192;28;20651;-71
2021/04/02 11:54:01;;;;;;;19.37;12.20;;;8.30;99.90;;;;;;5074983;28;20249;-72
2021/04/02 11:56:27;;;;;;;15.27;11.83;;;8.10;99.90;;;;;;5075058;28;20609;-72
2021/04/02 11:58:52;;;;;;;17.93;13.40;;;8.10;99.90;;;;;;5076406;28;20214;-72
2021/04/02 12:01:18;;;;;;;21.87;15.80;;;8.10;99.90;;;;;;5075614;28;20270;-72
2021/04/02 12:03:44;;;;;;;28.80;18.97;;;8.00;99.90;;;;;;5078855;28;20169;-72
2021/04/02 12:06:10;;;;;;;28.10;20.80;;;8.00;99.90;;;;;;5079605;28;20963;-72
2021/04/02 12:08:35;;;;;;;31.57;20.63;;;8.10;99.90;;;;;;5082281;28;20515;-72
2021/04/02 12:11:02;;;;;;;33.33;23.70;;;8.20;99.90;;;;;;5081786;28;20435;-72
2021/04/02 12:13:27;;;;;;;40.30;25.80;;;8.20;99.90;;;;;;5078736;28;20189;-72
2021/04/02 12:15:53;;;;;;;43.60;28.80;;;8.00;99.90;;;;;;5077413;28;20761;-72
2021/04/02 12:18:18;;;;;;;41.27;31.07;;;7.80;99.90;;;;;;5078742;28;20202;-72
2021/04/02 12:20:44;;;;;;;42.90;31.00;;;7.80;99.90;;;;;;5078585;28;20228;-72
2021/04/02 12:23:10;;;;;;;46.03;34.30;;;7.80;99.90;;;;;;5077048;28;20565;-72
2021/04/02 12:25:35;;;;;;;45.17;31.17;;;7.60;99.90;;;;;;5078076;28;20265;-72
2021/04/02 12:28:01;;;;;;;54.30;34.27;;;7.50;99.90;;;;;;5076945;28;20491;-73
2021/04/02 12:30:27;;;;;;;52.63;33.00;;;7.20;99.90;;;;;;5077578;28;20193;-73
2021/04/02 12:32:53;;;;;;;42.57;31.50;;;7.30;99.90;;;;;;5076550;28;20420;-73
2021/04/02 12:35:18;;;;;;;38.97;27.87;;;7.10;99.90;;;;;;5076815;28;20206;-72
2021/04/02 12:37:44;;;;;;;42.50;28.00;;;7.10;99.90;;;;;;5075302;28;20218;-73
2021/04/02 12:40:16;;;;;;;38.17;27.90;;;6.90;99.90;;;;;;5076207;28;20659;-72
2021/04/02 12:42:42;;;;;;;37.23;27.90;;;7.00;99.90;;;;;;5090059;28;20177;-72
2021/04/02 12:45:09;;;;;;;32.17;24.17;;;7.10;99.90;;;;;;5095812;28;20424;-72
2021/04/02 12:47:35;;;;;;;33.23;22.50;;;7.10;99.90;;;;;;5096716;27;20185;-73
2021/04/02 12:50:01;;;;;;;30.13;22.10;;;7.00;99.90;;;;;;5096251;28;20430;-73